Time;durP1;ratioP1;P1;durP2;ratioP2;P2;SDS_P1;SDS_P2;PMS_P1;PMS_P2;Temp;Humidity;BMP_temperature;BMP_pressure;BME280_temperature;BME280_humidity;BME280_pressure;Samples;Min_cycle;Max_cycle;Signal;HPM_P1;HPM_P2
2023/07/11 00:02:22;;;;;;;;;5.00;5.00;;;;;28.65;37.34;101499.03;5097819;27;45617;-82
2023/07/11 00:04:47;;;;;;;;;2.67;2.67;;;;;28.63;37.71;101495.75;5098619;27;47424;-82
2023/07/11 00:07:13;;;;;;;;;3.00;3.00;;;;;28.62;37.38;101491.44;5097545;27;45476;-82
2023/07/11 00:09:38;;;;;;;;;2.67;2.67;;;;;28.58;37.18;101488.34;5098964;27;45586;-82
2023/07/11 00:12:04;;;;;;;;;1.33;1.33;;;;;28.59;37.78;101498.03;5098110;27;45644;-82
2023/07/11 00:14:30;;;;;;;;;6.67;6.00;;;;;28.61;37.31;101487.94;5098983;27;46223;-82
2023/07/11 00:16:55;;;;;;;;;3.00;3.00;;;;;28.66;37.71;101495.34;5097463;27;45368;-82
2023/07/11 00:19:21;;;;;;;;;2.67;2.67;;;;;28.71;37.51;101508.09;5097744;27;45274;-81
2023/07/11 00:21:47;;;;;;;;;3.33;3.33;;;;;28.65;37.71;101487.53;5099149;27;45586;-82
2023/07/11 00:24:13;;;;;;;;;2.33;2.00;;;;;28.73;37.40;101506.03;5097536;27;46985;-82
2023/07/11 00:26:39;;;;;;;;;3.00;3.00;;;;;28.71;37.81;101498.22;5097454;27;45367;-82
2023/07/11 00:29:16;;;;;;;;;4.00;4.00;;;;;28.70;37.05;101495.75;5097602;27;45393;-82
2023/07/11 00:31:42;;;;;;;;;2.00;2.00;;;;;28.71;37.65;101502.75;5098159;27;45400;-82
2023/07/11 00:34:07;;;;;;;;;2.33;2.33;;;;;28.66;37.39;101489.16;5097614;27;48489;-82
2023/07/11 00:36:33;;;;;;;;;3.67;3.67;;;;;28.61;37.29;101481.75;5098723;27;45439;-82
2023/07/11 00:38:58;;;;;;;;;3.00;3.00;;;;;28.63;37.57;101487.72;5096761;27;45380;-82
2023/07/11 00:41:23;;;;;;;;;2.00;2.00;;;;;28.68;37.63;101493.28;5097759;27;45434;-81
2023/07/11 00:43:49;;;;;;;;;2.33;2.33;;;;;28.63;37.33;101482.38;5096271;27;47820;-81
2023/07/11 00:46:19;;;;;;;;;4.33;4.00;;;;;28.63;37.51;101488.56;5098660;27;45384;-81
2023/07/11 00:48:57;;;;;;;;;3.33;3.33;;;;;28.59;37.64;101476.63;5098300;27;45396;-82
2023/07/11 00:51:37;;;;;;;;;4.67;4.67;;;;;28.65;37.38;101493.69;5098048;27;45283;-82
2023/07/11 00:54:07;;;;;;;;;5.00;3.00;;;;;28.63;37.36;101479.69;5110198;27;46814;-82
2023/07/11 00:56:38;;;;;;;;;3.00;3.00;;;;;28.65;37.23;101482.97;5098470;27;45347;-81
2023/07/11 00:59:04;;;;;;;;;4.00;4.00;;;;;28.66;38.00;101478.44;5097495;27;45372;-81
2023/07/11 01:01:30;;;;;;;;;4.33;4.33;;;;;28.66;37.84;101475.78;5114525;27;45456;-82
2023/07/11 01:03:56;;;;;;;;;5.33;2.67;;;;;28.63;37.49;101472.50;5098623;27;46543;-82
2023/07/11 01:06:26;;;;;;;;;4.00;4.00;;;;;28.69;37.80;101475.34;5096571;27;45394;-82
2023/07/11 01:08:54;;;;;;;;;3.00;3.00;;;;;28.69;37.75;101480.72;5097110;27;45252;-82
2023/07/11 01:11:21;;;;;;;;;4.00;4.00;;;;;28.71;37.86;101478.63;5097522;27;45343;-82
2023/07/11 01:13:46;;;;;;;;;5.00;4.00;;;;;28.70;37.99;101475.13;5096747;27;47005;-82
2023/07/11 01:16:12;;;;;;;;;4.33;4.33;;;;;28.70;37.63;101471.66;5097307;27;45399;-82
2023/07/11 01:18:38;;;;;;;;;3.00;3.00;;;;;28.62;37.64;101454.78;5098432;27;45360;-82
2023/07/11 01:21:04;;;;;;;;;2.67;2.33;;;;;28.69;37.73;101465.47;5096736;27;45561;-82
2023/07/11 01:23:31;;;;;;;;;5.00;3.00;;;;;28.69;37.73;101453.94;5096443;27;45797;-81
2023/07/11 01:26:02;;;;;;;;;3.00;2.67;;;;;28.69;37.90;101453.94;5097973;27;45407;-81
2023/07/11 01:28:27;;;;;;;;;3.67;3.67;;;;;28.66;37.57;101460.53;5096850;27;45452;-82
2023/07/11 01:30:53;;;;;;;;;3.00;2.67;;;;;28.71;37.61;101465.25;5096927;27;45348;-82
2023/07/11 01:33:18;;;;;;;;;3.67;2.00;;;;;28.70;37.88;101461.75;5096879;27;47850;-83
2023/07/11 01:35:44;;;;;;;;;3.33;3.33;;;;;28.69;37.76;101456.63;5096658;27;45322;-83
2023/07/11 01:38:09;;;;;;;;;3.00;3.00;;;;;28.65;38.02;101442.81;5096482;27;45798;-82
2023/07/11 01:40:34;;;;;;;;;4.00;4.00;;;;;28.65;37.58;101447.38;5096729;27;45577;-81
2023/07/11 01:43:02;;;;;;;;;2.33;2.33;;;;;28.71;37.81;101452.69;5096119;27;48224;-83
2023/07/11 01:45:30;;;;;;;;;3.67;3.67;;;;;28.62;37.57;101432.56;5096518;27;45456;-82
2023/07/11 01:47:55;;;;;;;;;5.00;3.67;;;;;28.69;37.72;101433.34;5096848;27;45494;-82
2023/07/11 01:50:21;;;;;;;;;2.67;2.67;;;;;28.51;38.27;101410.78;5095479;27;45526;-83
2023/07/11 01:52:46;;;;;;;;;3.00;3.00;;;;;28.70;37.68;101434.19;5097334;27;47313;-82
2023/07/11 01:55:11;;;;;;;;;3.00;3.00;;;;;28.66;37.86;101430.25;5096459;27;45438;-82
2023/07/11 01:57:37;;;;;;;;;5.00;3.67;;;;;28.64;38.45;101427.81;5096282;27;45629;-82
2023/07/11 02:00:03;;;;;;;;;5.67;4.67;;;;;28.63;37.50;101424.31;5097561;27;45569;-82
2023/07/11 02:02:28;;;;;;;;;3.33;3.33;;;;;28.67;38.12;101432.75;5097677;27;46307;-82
2023/07/11 02:04:53;;;;;;;;;2.00;2.00;;;;;28.61;37.77;101415.66;5096887;27;45511;-82
2023/07/11 02:07:19;;;;;;;;;4.00;4.00;;;;;28.65;37.92;101425.97;5096001;27;45350;-82
2023/07/11 02:09:44;;;;;;;;;3.33;3.33;;;;;28.60;38.42;101416.69;5097190;27;45336;-82
2023/07/11 02:12:10;;;;;;;;;3.00;3.00;;;;;28.63;38.07;101423.47;5097052;27;45374;-82
2023/07/11 02:14:36;;;;;;;;;2.00;2.00;;;;;28.58;37.65;101407.22;5096068;27;45472;-82
2023/07/11 02:17:02;;;;;;;;;4.33;3.00;;;;;28.58;38.22;101404.56;5096157;27;45350;-82
2023/07/11 02:19:27;;;;;;;;;3.67;2.33;;;;;28.61;38.34;101415.66;5095556;27;45712;-82
2023/07/11 02:21:53;;;;;;;;;2.67;2.67;;;;;28.61;38.29;101407.63;5095744;27;48174;-82
2023/07/11 02:24:19;;;;;;;;;3.00;3.00;;;;;28.63;37.82;101413.59;5097343;27;45396;-83
2023/07/11 02:26:44;;;;;;;;;3.67;3.00;;;;;28.60;37.96;101394.44;5097320;27;45311;-82
2023/07/11 02:29:10;;;;;;;;;4.33;3.00;;;;;28.65;37.90;101410.69;5095988;27;45609;-83
2023/07/11 02:31:37;;;;;;;;;5.00;2.00;;;;;28.58;38.30;101391.16;5096783;27;45416;-83
2023/07/11 02:34:04;;;;;;;;;2.00;2.00;;;;;28.65;38.14;101407.22;5095323;27;45382;-83
2023/07/11 02:36:30;;;;;;;;;3.33;2.33;;;;;28.66;37.98;101398.13;5078668;27;45358;-82
2023/07/11 02:38:56;;;;;;;;;3.00;3.00;;;;;28.58;38.44;101383.97;5094620;27;45406;-82
2023/07/11 02:41:21;;;;;;;;;1.67;1.67;;;;;28.58;38.11;101377.78;5096571;27;46299;-82
2023/07/11 02:43:47;;;;;;;;;3.00;3.00;;;;;28.62;37.72;101385.16;5096943;27;45259;-82
2023/07/11 02:46:14;;;;;;;;;4.00;3.00;;;;;28.66;37.65;101390.09;5095297;27;45346;-81
2023/07/11 02:48:40;;;;;;;;;3.00;3.00;;;;;28.61;37.95;101380.03;5096532;27;45428;-82
2023/07/11 02:51:05;;;;;;;;;2.33;2.33;;;;;28.63;37.78;101384.16;5091849;27;48171;-82
2023/07/11 02:53:31;;;;;;;;;3.00;3.00;;;;;28.66;37.89;101377.56;5074222;27;45347;-82
2023/07/11 02:55:56;;;;;;;;;3.33;3.33;;;;;28.62;38.28;101376.34;5076321;27;45351;-81
2023/07/11 02:58:22;;;;;;;;;3.00;3.00;;;;;28.60;38.02;101373.03;5075051;28;45722;-81
2023/07/11 03:00:49;;;;;;;;;4.33;2.00;;;;;28.66;38.23;101374.03;5076018;27;45661;-82
2023/07/11 03:03:15;;;;;;;;;5.00;4.00;;;;;28.63;38.13;101372.63;5080525;27;45473;-82
2023/07/11 03:05:45;;;;;;;;;2.33;2.33;;;;;28.59;38.15;101366.88;5095331;27;45486;-83
2023/07/11 03:08:11;;;;;;;;;4.00;4.00;;;;;28.66;38.04;101371.38;5094277;27;45752;-82
2023/07/11 03:10:36;;;;;;;;;4.00;4.00;;;;;28.62;38.32;101365.63;5094983;27;45352;-82
2023/07/11 03:13:01;;;;;;;;;3.00;3.00;;;;;28.62;37.80;101365.63;5095139;27;45322;-82
2023/07/11 03:15:27;;;;;;;;;2.33;2.33;;;;;28.62;38.29;101365.63;5095058;27;45331;-82
2023/07/11 03:17:52;;;;;;;;;3.33;2.00;;;;;28.63;38.00;101361.91;5094736;27;45327;-82
2023/07/11 03:20:18;;;;;;;;;4.00;4.00;;;;;28.65;37.82;101367.88;5095579;27;45395;-82
2023/07/11 03:22:43;;;;;;;;;2.67;2.67;;;;;28.62;38.14;101369.13;5095254;27;45453;-82
2023/07/11 03:25:08;;;;;;;;;3.00;2.67;;;;;28.58;38.35;101354.53;5095178;27;45347;-83
2023/07/11 03:27:34;;;;;;;;;3.00;3.00;;;;;28.61;38.09;101369.34;5094487;27;45332;-82
2023/07/11 03:29:59;;;;;;;;;5.00;5.00;;;;;28.65;38.30;101361.72;5098055;27;46876;-83
2023/07/11 03:32:24;;;;;;;;;3.00;3.00;;;;;28.66;37.93;101357.97;5098108;27;45343;-82
2023/07/11 03:34:50;;;;;;;;;2.67;2.67;;;;;28.61;38.27;101351.44;5097678;27;45373;-83
2023/07/11 03:37:15;;;;;;;;;2.00;2.00;;;;;28.59;38.35;101348.16;5099980;27;45223;-82
2023/07/11 03:39:41;;;;;;;;;3.33;3.33;;;;;28.68;38.22;101361.25;5099559;27;46303;-82
2023/07/11 03:42:06;;;;;;;;;2.67;2.67;;;;;28.65;38.33;101354.47;5098027;27;45312;-82
2023/07/11 03:44:32;;;;;;;;;3.00;3.00;;;;;28.67;38.01;101360.47;5099828;27;45383;-82
2023/07/11 03:46:57;;;;;;;;;3.00;3.00;;;;;28.64;38.28;101352.84;5099549;27;45444;-82
2023/07/11 03:49:22;;;;;;;;;4.67;3.00;;;;;28.62;38.14;101346.91;5098668;27;45396;-82
2023/07/11 03:51:48;;;;;;;;;3.00;3.00;;;;;28.67;38.13;101347.06;5099304;27;45244;-82
2023/07/11 03:54:13;;;;;;;;;3.00;3.00;;;;;28.60;38.21;101348.94;5099470;27;45400;-82
2023/07/11 03:56:39;;;;;;;;;6.00;4.67;;;;;28.60;38.06;101344.41;5099918;27;45643;-81
2023/07/11 03:59:04;;;;;;;;;4.33;3.33;;;;;28.62;38.29;101354.94;5114941;27;45526;-82
2023/07/11 04:01:29;;;;;;;;;5.67;3.00;;;;;28.63;38.08;101349.34;5098728;27;45442;-82
2023/07/11 04:03:55;;;;;;;;;2.67;2.67;;;;;28.58;38.22;101334.97;5099480;27;45399;-82
2023/07/11 04:06:20;;;;;;;;;3.33;3.33;;;;;28.59;38.22;101337.44;5097952;27;45411;-82
2023/07/11 04:08:47;;;;;;;;;2.33;2.33;;;;;28.61;38.24;101335.38;5097614;27;47028;-82
2023/07/11 04:11:12;;;;;;;;;3.67;3.67;;;;;28.66;38.26;101336.56;5099017;27;45480;-82
2023/07/11 04:13:38;;;;;;;;;4.00;4.00;;;;;28.61;38.09;101329.19;5097908;27;45276;-82
2023/07/11 04:16:03;;;;;;;;;3.00;3.00;;;;;28.69;37.81;101344.19;5098706;27;45379;-81
2023/07/11 04:18:29;;;;;;;;;3.00;3.00;;;;;28.62;38.18;101328.97;5097658;27;46928;-82
2023/07/11 04:20:54;;;;;;;;;2.00;2.00;;;;;28.68;38.28;101338.00;5098800;27;45367;-82
2023/07/11 04:23:19;;;;;;;;;2.33;2.33;;;;;28.65;38.47;101335.75;5097772;27;45402;-82
2023/07/11 04:25:45;;;;;;;;;2.67;2.67;;;;;28.70;38.20;101343.94;5099223;27;45435;-82
2023/07/11 04:28:11;;;;;;;;;3.33;3.33;;;;;28.69;37.94;101336.16;5098680;27;46314;-82
2023/07/11 04:30:37;;;;;;;;;3.00;3.00;;;;;28.66;38.20;101339.25;5098951;27;45394;-82
2023/07/11 04:33:02;;;;;;;;;2.33;2.00;;;;;28.65;37.99;101326.91;5099028;27;45335;-82
2023/07/11 04:35:29;;;;;;;;;3.33;3.33;;;;;28.69;37.81;101325.44;5097972;27;45302;-82
2023/07/11 04:37:55;;;;;;;;;4.00;4.00;;;;;28.68;37.59;101329.97;5098693;27;46757;-82
2023/07/11 04:40:20;;;;;;;;;4.00;3.00;;;;;28.69;37.76;101323.59;5096333;27;45390;-82
2023/07/11 04:42:46;;;;;;;;;3.00;3.00;;;;;28.70;38.07;101317.19;5098857;27;45314;-82
2023/07/11 04:45:11;;;;;;;;;3.67;3.67;;;;;28.71;37.83;101312.66;5097349;27;45580;-82
2023/07/11 04:47:37;;;;;;;;;3.33;3.33;;;;;28.77;37.89;101327.88;5098196;27;45662;-82
2023/07/11 04:50:03;;;;;;;;;5.00;3.00;;;;;28.84;38.21;101330.50;5098329;27;45357;-82
2023/07/11 04:52:29;;;;;;;;;4.00;4.00;;;;;28.83;38.09;101326.19;5096922;27;45366;-82
2023/07/11 04:54:54;;;;;;;;;5.67;4.00;;;;;28.84;37.76;101325.13;5098690;27;45350;-81
2023/07/11 04:57:21;;;;;;;;;3.00;3.00;;;;;28.90;38.14;101337.69;5099130;27;46403;-81
2023/07/11 04:59:46;;;;;;;;;3.00;3.00;;;;;28.91;37.55;101327.78;5113677;27;45617;-81
2023/07/11 05:02:11;;;;;;;;;5.00;3.00;;;;;28.90;38.07;101323.47;5113979;27;45330;-80
2023/07/11 05:04:38;;;;;;;;;4.00;3.00;;;;;28.98;37.66;101331.25;5098704;27;45524;-82
2023/07/11 05:07:05;;;;;;;;;2.67;2.67;;;;;28.93;37.86;101317.69;5096902;27;45569;-82
2023/07/11 05:09:30;;;;;;;;;4.67;4.00;;;;;28.95;38.36;101327.13;5097754;27;45420;-81
2023/07/11 05:11:56;;;;;;;;;3.67;2.33;;;;;28.99;37.94;101318.69;5098095;27;45705;-81
2023/07/11 05:14:22;;;;;;;;;4.67;3.00;;;;;29.01;37.67;101325.47;5096529;27;45914;-81
2023/07/11 05:16:47;;;;;;;;;3.67;2.00;;;;;29.02;37.66;101327.09;5098193;27;45416;-81
2023/07/11 05:19:13;;;;;;;;;3.00;3.00;;;;;29.05;38.16;101323.97;5098206;27;45378;-81
2023/07/11 05:21:39;;;;;;;;;1.33;1.33;;;;;29.08;37.46;101330.75;5098761;27;45440;-81
2023/07/11 05:24:04;;;;;;;;;3.33;3.00;;;;;29.09;37.73;101324.41;5098037;27;45481;-81
2023/07/11 05:26:30;;;;;;;;;2.00;2.00;;;;;29.14;37.52;101329.09;5096773;27;45371;-81
2023/07/11 05:28:57;;;;;;;;;3.00;3.00;;;;;29.17;37.77;101337.50;5097564;27;45522;-81
2023/07/11 05:31:23;;;;;;;;;3.33;3.33;;;;;29.20;37.98;101325.53;5097447;27;45282;-82
2023/07/11 05:33:52;;;;;;;;;4.00;3.00;;;;;29.20;37.30;101319.38;5095802;27;45301;-82
2023/07/11 05:36:33;;;;;;;;;3.33;1.33;;;;;29.26;37.23;101319.31;5098037;27;46443;-82
2023/07/11 05:39:04;;;;;;;;;3.00;3.00;;;;;29.30;37.73;101325.06;5097930;27;45408;-82
2023/07/11 05:41:31;;;;;;;;;3.33;2.00;;;;;29.32;37.63;101325.66;5097507;27;45322;-81
2023/07/11 05:43:57;;;;;;;;;3.00;3.00;;;;;29.34;36.92;101318.22;5097358;27;45639;-82
2023/07/11 05:46:25;;;;;;;;;2.00;2.00;;;;;29.39;37.22;101312.19;5096223;27;46369;-81
2023/07/11 05:48:52;;;;;;;;;4.00;3.00;;;;;29.40;37.55;101320.03;5097418;27;45370;-82
2023/07/11 05:51:18;;;;;;;;;3.33;3.33;;;;;29.47;37.22;101309.25;5095444;27;45304;-84
2023/07/11 05:53:48;;;;;;;;;2.67;2.67;;;;;29.56;37.45;101311.66;5113619;27;45439;-84
2023/07/11 05:56:18;;;;;;;;;2.33;2.33;;;;;29.63;37.07;101307.88;5097106;27;46376;-84
2023/07/11 05:58:45;;;;;;;;;3.33;3.00;;;;;29.66;37.01;101298.56;5113273;27;45290;-83
2023/07/11 06:01:12;;;;;;;;;3.33;3.33;;;;;29.77;36.67;101291.66;5096265;27;45362;-79
2023/07/11 06:03:46;;;;;;;;;3.67;3.00;;;;;29.92;36.81;101294.00;5108427;27;45356;-80
2023/07/11 06:06:14;;;;;;;;;2.00;2.00;;;;;30.09;36.53;101287.19;5098214;27;45394;-84
2023/07/11 06:08:40;;;;;;;;;4.33;3.00;;;;;30.27;36.10;101294.38;5097493;27;45443;-86
2023/07/11 06:11:07;;;;;;;;;3.33;3.33;;;;;30.35;35.50;101269.13;5096314;27;45346;-87
2023/07/11 06:13:35;;;;;;;;;5.33;2.67;;;;;30.70;35.59;101305.22;5096869;27;45361;-84
2023/07/11 06:16:08;;;;;;;;;3.00;3.00;;;;;30.82;34.82;101303.38;5096425;27;45479;-87
2023/07/11 06:18:35;;;;;;;;;5.33;3.33;;;;;30.79;34.56;101303.81;5096354;27;45375;-89
2023/07/11 06:21:01;;;;;;;;;5.00;2.33;;;;;30.76;34.61;101290.84;5094032;27;46086;-88
2023/07/11 06:23:27;;;;;;;;;3.67;3.00;;;;;30.61;34.79;101293.97;5087003;27;45520;-87
2023/07/11 06:25:52;;;;;;;;;3.00;2.00;;;;;30.35;35.26;101295.97;5088254;27;45653;-87
2023/07/11 06:28:18;;;;;;;;;4.67;3.33;;;;;30.17;34.98;101297.59;5095326;27;45370;-86
2023/07/11 06:30:43;;;;;;;;;3.00;3.00;;;;;29.93;35.61;101295.59;5097022;27;45399;-80
2023/07/11 06:33:10;;;;;;;;;3.00;3.00;;;;;29.80;35.95;101291.22;5096976;27;45465;-83
2023/07/11 06:35:37;;;;;;;;;2.67;2.00;;;;;29.65;35.98;101285.34;5095591;27;45387;-86
2023/07/11 06:38:03;;;;;;;;;3.33;3.33;;;;;29.55;35.95;101280.50;5088135;27;45538;-87
2023/07/11 06:40:29;;;;;;;;;3.00;3.00;;;;;29.47;36.31;101285.13;5093761;27;45441;-86
2023/07/11 06:42:54;;;;;;;;;1.33;1.33;;;;;29.41;36.40;101280.63;5093101;27;46475;-86
2023/07/11 06:45:20;;;;;;;;;3.67;3.67;;;;;29.38;36.42;101267.69;5091256;27;46938;-87
2023/07/11 06:47:46;;;;;;;;;5.33;4.00;;;;;29.37;37.11;101280.28;5107502;27;45851;-87
2023/07/11 06:50:12;;;;;;;;;4.67;3.00;;;;;29.38;37.01;101283.78;5102561;27;45345;-87
2023/07/11 06:52:37;;;;;;;;;4.00;3.67;;;;;29.27;37.26;101275.41;5094903;27;45362;-88
2023/07/11 06:55:03;;;;;;;;;3.00;3.00;;;;;29.36;37.27;101283.16;5098317;27;45971;-88
2023/07/11 06:57:28;;;;;;;;;4.67;4.00;;;;;29.35;37.52;101282.38;5111867;27;45707;-87
2023/07/11 06:59:53;;;;;;;;;3.33;2.00;;;;;29.31;37.33;101280.31;5121420;27;45568;-87
2023/07/11 07:02:19;;;;;;;;;3.00;3.00;;;;;29.27;37.74;101278.09;5107631;27;45785;-87
2023/07/11 07:04:44;;;;;;;;;2.67;1.33;;;;;29.23;37.63;101266.16;5117014;27;47808;-87
2023/07/11 07:07:09;;;;;;;;;1.00;1.00;;;;;29.27;37.76;101271.91;5124293;27;45555;-88
2023/07/11 07:09:35;;;;;;;;;6.00;3.33;;;;;29.23;37.74;101268.00;5104989;27;45652;-86
2023/07/11 07:12:00;;;;;;;;;4.00;2.33;;;;;29.22;37.57;101261.03;5105173;27;45469;-87
2023/07/11 07:14:26;;;;;;;;;4.00;4.00;;;;;29.25;37.63;101271.31;5108429;27;46471;-87
2023/07/11 07:16:51;;;;;;;;;3.33;2.67;;;;;29.24;38.04;101265.13;5116181;27;45696;-87
2023/07/11 07:19:16;;;;;;;;;4.00;3.67;;;;;29.18;38.21;101256.09;5127657;27;45752;-88
2023/07/11 07:21:43;;;;;;;;;2.00;2.00;;;;;29.22;37.97;101261.84;5104377;27;45709;-89
2023/07/11 07:24:09;;;;;;;;;5.00;3.00;;;;;29.19;38.40;101256.94;5123022;27;45651;-89
2023/07/11 07:26:34;;;;;;;;;3.67;3.00;;;;;29.21;38.39;101259.38;5107708;27;45583;-88
2023/07/11 07:29:00;;;;;;;;;5.00;3.33;;;;;29.22;38.11;101253.00;5101255;27;45550;-89
2023/07/11 07:31:27;;;;;;;;;3.67;2.00;;;;;29.16;38.32;101250.16;5100518;27;45548;-86
2023/07/11 07:33:52;;;;;;;;;4.33;4.33;;;;;29.17;38.38;101250.97;5095747;27;45419;-87
2023/07/11 07:36:17;;;;;;;;;3.00;3.00;;;;;29.16;38.71;101247.47;5123835;27;45370;-87
2023/07/11 07:38:43;;;;;;;;;3.00;3.00;;;;;29.19;38.28;101243.53;5104063;27;45425;-87
2023/07/11 07:41:10;;;;;;;;;3.00;3.00;;;;;29.11;38.49;101239.28;5115691;27;45667;-88
2023/07/11 07:43:39;;;;;;;;;2.67;2.67;;;;;29.09;38.65;101236.00;5100024;27;48200;-88
2023/07/11 07:46:05;;;;;;;;;3.33;3.00;;;;;29.14;38.41;101238.03;5101450;27;45470;-89
2023/07/11 07:48:31;;;;;;;;;4.00;2.67;;;;;29.13;38.66;101237.19;5106440;27;45507;-89
2023/07/11 07:51:02;;;;;;;;;5.67;3.67;;;;;29.13;38.42;101242.56;5099267;27;45324;-89
2023/07/11 07:53:28;;;;;;;;;3.33;2.00;;;;;29.14;39.24;101235.34;5101282;27;46427;-89
2023/07/11 07:55:53;;;;;;;;;3.00;3.00;;;;;29.08;38.73;101234.31;5105522;27;46409;-88
2023/07/11 07:58:19;;;;;;;;;2.33;2.33;;;;;29.10;38.94;101237.63;5121943;27;45369;-88
2023/07/11 08:00:44;;;;;;;;;2.00;2.00;;;;;29.13;38.48;101242.56;5101496;27;45976;-87
2023/07/11 08:03:10;;;;;;;;;4.00;2.00;;;;;29.12;38.42;101240.91;5119640;27;46868;-87
2023/07/11 08:05:36;;;;;;;;;3.00;3.00;;;;;29.09;38.95;101235.16;5099847;27;45952;-88
2023/07/11 08:08:03;;;;;;;;;4.00;2.67;;;;;29.09;38.74;101227.97;5100993;27;45426;-88
2023/07/11 08:10:28;;;;;;;;;2.00;2.00;;;;;29.04;38.92;101223.22;5102110;27;45707;-87
2023/07/11 08:12:53;;;;;;;;;3.00;3.00;;;;;29.07;38.99;101225.47;5120418;27;46405;-87
2023/07/11 08:15:19;;;;;;;;;2.67;2.67;;;;;29.10;38.95;101228.75;5075320;27;45811;-87
2023/07/11 08:17:45;;;;;;;;;3.00;1.33;;;;;29.06;38.99;101215.81;5123682;27;45678;-88
2023/07/11 08:20:12;;;;;;;;;2.00;2.00;;;;;29.10;39.12;101226.91;5104412;27;45525;-87
2023/07/11 08:22:38;;;;;;;;;1.67;1.67;;;;;29.08;38.69;101223.59;5102485;27;45680;-87
2023/07/11 08:25:04;;;;;;;;;1.67;1.67;;;;;29.07;38.99;101219.28;5107956;27;45464;-88
2023/07/11 08:27:29;;;;;;;;;2.67;2.67;;;;;29.10;39.20;101220.72;5112255;27;45603;-87
2023/07/11 08:29:56;;;;;;;;;3.00;3.00;;;;;29.06;39.21;101206.94;5100871;27;45360;-87
2023/07/11 08:32:22;;;;;;;;;2.00;2.00;;;;;29.15;39.10;101220.88;5109170;27;47570;-86
2023/07/11 08:34:48;;;;;;;;;2.67;2.67;;;;;29.09;39.06;101205.69;5076647;27;45550;-86
2023/07/11 08:37:14;;;;;;;;;2.00;2.00;;;;;29.14;39.01;101211.22;5123394;27;45508;-86
2023/07/11 08:39:40;;;;;;;;;2.67;2.00;;;;;29.10;39.11;101205.47;5105286;27;45554;-87
2023/07/11 08:42:35;;;;;;;;;2.00;2.00;;;;;29.14;39.11;101208.56;5114544;27;46041;-86
2023/07/11 08:45:25;;;;;;;;;2.00;2.00;;;;;29.13;39.08;101207.72;5113177;27;45579;-85
2023/07/11 08:48:12;;;;;;;;;1.00;1.00;;;;;29.13;39.15;101198.88;5101886;27;45462;-87
2023/07/11 08:50:53;;;;;;;;;3.00;3.00;;;;;29.10;39.01;101185.91;5095528;27;45671;-87
2023/07/11 08:53:26;;;;;;;;;1.33;1.33;;;;;29.09;38.94;101192.28;5095970;27;46306;-86
2023/07/11 08:55:56;;;;;;;;;5.67;3.00;;;;;29.08;39.07;101183.44;5118444;27;45922;-86
2023/07/11 08:58:34;;;;;;;;;2.00;2.00;;;;;29.12;39.47;101189.22;5109095;27;44854;-86
2023/07/11 09:01:04;;;;;;;;;2.00;1.67;;;;;29.07;38.80;101179.94;5105057;27;46006;-86
2023/07/11 09:03:45;;;;;;;;;2.00;2.00;;;;;29.04;39.49;101168.84;5101238;27;45812;-86
2023/07/11 09:06:16;;;;;;;;;2.00;2.00;;;;;29.11;39.50;101183.03;5107237;27;45806;-87
2023/07/11 09:08:45;;;;;;;;;2.00;2.00;;;;;29.07;39.35;101163.84;5099940;27;45789;-86
2023/07/11 09:11:33;;;;;;;;;3.00;3.00;;;;;29.13;39.08;101174.75;5093042;27;45552;-86
2023/07/11 09:14:11;;;;;;;;;1.67;1.67;;;;;29.12;39.25;101168.56;5112220;27;45488;-86
2023/07/11 09:17:05;;;;;;;;;2.00;2.00;;;;;29.11;39.36;101166.13;5114617;27;45387;-86
2023/07/11 09:19:55;;;;;;;;;4.00;4.00;;;;;29.13;39.13;101177.44;5098758;27;45527;-86
2023/07/11 09:22:35;;;;;;;;;2.00;2.00;;;;;29.08;39.38;101153.97;5092130;27;45433;-86
2023/07/11 09:25:07;;;;;;;;;2.00;2.00;;;;;29.13;39.28;101172.06;5093862;27;46436;-85
2023/07/11 09:27:36;;;;;;;;;2.33;2.33;;;;;29.11;39.34;101166.94;5109851;27;46110;-86
2023/07/11 09:30:39;;;;;;;;;2.00;2.00;;;;;29.13;39.20;101162.19;5106097;27;45562;-87
2023/07/11 09:33:30;;;;;;;;;3.67;2.00;;;;;29.14;39.10;101157.66;5101350;27;45624;-87
2023/07/11 09:35:57;;;;;;;;;4.00;2.00;;;;;29.10;38.91;101145.72;5113200;27;46688;-85
2023/07/11 09:38:38;;;;;;;;;2.00;2.00;;;;;29.13;38.78;101147.97;5092995;27;45584;-86
2023/07/11 09:41:26;;;;;;;;;2.00;2.00;;;;;29.11;39.23;101132.13;5101987;27;45505;-86
2023/07/11 09:43:52;;;;;;;;;3.00;2.00;;;;;29.09;39.30;101131.53;5111090;27;45520;-87
2023/07/11 09:46:23;;;;;;;;;0.67;0.67;;;;;29.09;39.05;101128.84;5099944;27;46355;-86
2023/07/11 09:48:54;;;;;;;;;2.33;2.33;;;;;29.17;39.29;101136.56;5107942;27;45393;-87
2023/07/11 09:51:30;;;;;;;;;2.00;2.00;;;;;29.07;39.39;101115.63;5102623;27;45516;-87
2023/07/11 09:53:57;;;;;;;;;1.67;1.67;;;;;29.13;39.19;101130.03;5106015;27;45419;-85
2023/07/11 09:56:25;;;;;;;;;2.00;2.00;;;;;29.16;39.31;101129.59;5094964;27;46238;-86
2023/07/11 09:58:58;;;;;;;;;1.67;1.67;;;;;29.17;39.26;101130.44;5102414;27;45672;-86
2023/07/11 10:01:24;;;;;;;;;2.67;2.00;;;;;29.17;39.22;101130.44;5120286;27;45399;-86
2023/07/11 10:03:57;;;;;;;;;2.00;2.00;;;;;29.16;38.78;101132.28;5102241;27;45645;-85
2023/07/11 10:06:44;;;;;;;;;1.67;1.67;;;;;29.05;39.09;101107.00;5090117;27;45542;-87
2023/07/11 10:09:29;;;;;;;;;1.67;1.67;;;;;29.16;39.47;101126.09;5091864;27;45458;-86
2023/07/11 10:11:56;;;;;;;;;2.33;2.33;;;;;29.15;39.44;101117.22;5092642;27;45354;-85
2023/07/11 10:14:26;;;;;;;;;1.00;1.00;;;;;29.15;39.26;101119.91;5091777;27;45452;-86
2023/07/11 10:16:54;;;;;;;;;2.00;1.00;;;;;29.14;39.40;101112.94;5092198;27;46953;-85
2023/07/11 10:19:20;;;;;;;;;2.00;2.00;;;;;29.13;39.58;101113.97;5092747;27;45786;-84
2023/07/11 10:21:50;;;;;;;;;2.33;2.00;;;;;29.16;38.97;101118.06;5083780;27;45595;-82
2023/07/11 10:24:26;;;;;;;;;1.33;1.33;;;;;29.13;39.04;101097.06;5090577;27;45832;-85
2023/07/11 10:27:02;;;;;;;;;2.33;2.33;;;;;29.13;39.71;101097.91;5101322;27;46859;-87
2023/07/11 10:29:42;;;;;;;;;4.00;1.33;;;;;29.14;39.73;101090.69;5101569;27;45471;-90
2023/07/11 10:32:19;;;;;;;;;1.67;1.67;;;;;29.22;39.38;101102.97;5103012;27;45836;-88
2023/07/11 10:34:50;;;;;;;;;4.33;3.00;;;;;29.22;39.72;101097.59;5095459;27;45406;-88
2023/07/11 10:37:25;;;;;;;;;2.67;2.00;;;;;29.23;39.56;101089.31;5092356;27;46407;-87
2023/07/11 10:40:05;;;;;;;;;1.67;1.67;;;;;29.16;39.17;101077.88;5098471;27;46212;-87
2023/07/11 10:42:59;;;;;;;;;1.00;1.00;;;;;29.22;39.33;101079.66;5105198;27;45149;-88
2023/07/11 10:45:37;;;;;;;;;5.00;2.00;;;;;29.27;39.52;101084.34;5036408;28;45447;-90
2023/07/11 10:48:32;;;;;;;;;3.00;2.00;;;;;29.13;39.53;101051.53;5038844;28;46149;-88
2023/07/11 10:51:09;;;;;;;;;3.00;3.00;;;;;29.22;39.48;101068.13;5029553;28;45665;-87
2023/07/11 10:54:14;;;;;;;;;1.00;1.00;;;;;29.30;39.86;101078.56;5030405;28;46494;-81
2023/07/11 10:56:44;;;;;;;;;1.33;1.33;;;;;29.25;39.19;101063.13;5031610;28;45723;-83
2023/07/11 10:59:23;;;;;;;;;2.67;1.00;;;;;29.26;39.53;101063.94;5026937;28;45996;-81
2023/07/11 11:02:05;;;;;;;;;2.33;0.33;;;;;29.29;39.51;101069.69;5045011;28;45415;-82
2023/07/11 11:04:39;;;;;;;;;1.00;1.00;;;;;29.29;39.31;101072.38;5031389;28;45557;-82
2023/07/11 11:07:29;;;;;;;;;1.67;1.67;;;;;29.32;39.59;101059.56;5031624;28;45606;-83
2023/07/11 11:10:35;;;;;;;;;2.33;2.33;;;;;29.32;39.36;101059.56;5026831;28;47672;-82
2023/07/11 11:13:24;;;;;;;;;2.00;1.00;;;;;29.32;39.58;101054.19;5027904;28;45495;-86
2023/07/11 11:15:49;;;;;;;;;1.00;1.00;;;;;29.30;39.48;101046.41;5026814;28;45707;-85
2023/07/11 11:18:54;;;;;;;;;1.00;1.00;;;;;29.32;39.52;101043.47;5027016;28;45644;-88
2023/07/11 11:21:47;;;;;;;;;1.67;1.00;;;;;29.31;39.44;101039.97;5031217;27;45603;-85
2023/07/11 11:24:18;;;;;;;;;1.33;1.33;;;;;29.32;39.50;101027.41;5089742;27;45801;-87
2023/07/11 11:27:22;;;;;;;;;2.00;2.00;;;;;29.30;39.65;101027.63;5092566;27;45471;-87
2023/07/11 11:30:19;;;;;;;;;0.33;0.33;;;;;29.29;39.32;101029.50;5095159;27;45690;-86
2023/07/11 11:32:54;;;;;;;;;4.00;2.00;;;;;29.28;39.28;101033.22;5095890;27;45511;-89
2023/07/11 11:35:33;;;;;;;;;0.33;0.33;;;;;29.29;39.71;101026.81;5094747;27;45580;-86